Stephen R Warden — WDC6523 — position and weather

sailwx.info

Track history (hours):
 
Tides and Currents Weather Stations Pressure Air Temp Water Temp Dewpoint Dewpoint Depression Visibility Wind Speed Wind Dir Waves Ship Positions

Stephen R Warden

More information available from US FCC via Universal Licensing System and Coast Guard Vessel Documentation Center.

Last reported at 2014-Jul-28 09:31 UTC. Time now 2014-Jul-28 20:41 UTC.
Position N 29°56' W 090°11'.

Length 37 m; draft 3 m.

Type: Towing. MMSI: 367057460.

Date/timePositionNaut miles runAvg speedWind from/ knotsBaromVisibWave heightAir tempDewpointWater temp
2014-Jul-28 09:31N 29°56' W 090°11'3 2.6
2014-Jul-28 08:18N 29°55' W 090°08'3 4.7
2014-Jul-28 07:33N 29°56' W 090°04'4 3.2
2014-Jul-28 06:17N 29°56' W 089°59'7 2.5
2014-Jul-28 03:21N 29°48' W 090°00'12 0.7
2014-Jul-27 11:30N 29°57' W 090°09'28 3.4
2014-Jul-27 03:10N 30°03' W 090°40'11 0.6
2014-Jul-26 07:31N 30°04' W 090°53'5 4.8
2014-Jul-26 06:33N 29°60' W 090°50'6 1.4
2014-Jul-26 02:12N 30°01' W 090°43'  
2014-Jul-22 13:29N 30°01' W 090°50'2 2.5
2014-Jul-22 12:33N 29°59' W 090°48'3 2.6
2014-Jul-22 11:33N 30°01' W 090°46'3 1.3
2014-Jul-22 09:25N 30°01' W 090°43'  
2014-Jul-19 08:16N 30°01' W 090°46'1 0.4
2014-Jul-19 06:33N 30°01' W 090°46'0 0.0
2014-Jul-19 05:31N 30°01' W 090°46'0 0.0
2014-Jul-19 04:16N 30°01' W 090°46'0 0.0
2014-Jul-19 03:33N 30°01' W 090°46'  
Track history (hours):
 
Tides and Currents Weather Stations Pressure Air Temp Water Temp Dewpoint Dewpoint Depression Visibility Wind Speed Wind Dir Waves Ship Positions

Stephen R Warden

More information available from US FCC via Universal Licensing System and Coast Guard Vessel Documentation Center.

Last reported at 2014-Jul-28 09:31 UTC. Time now 2014-Jul-28 20:41 UTC.
Position N 29°56' W 090°11'.

Length 37 m; draft 3 m.

Type: Towing. MMSI: 367057460.

Date/timePositionNaut miles runAvg speedWind from/ knotsBaromVisibWave heightAir tempDewpointWater temp
2014-Jul-28 09:31N 29°56' W 090°11'3 2.6
2014-Jul-28 08:18N 29°55' W 090°08'3 4.7
2014-Jul-28 07:33N 29°56' W 090°04'4 3.2
2014-Jul-28 06:17N 29°56' W 089°59'7 2.5
2014-Jul-28 03:21N 29°48' W 090°00'12 0.7
2014-Jul-27 11:30N 29°57' W 090°09'28 3.4
2014-Jul-27 03:10N 30°03' W 090°40'11 0.6
2014-Jul-26 07:31N 30°04' W 090°53'5 4.8
2014-Jul-26 06:33N 29°60' W 090°50'6 1.4
2014-Jul-26 02:12N 30°01' W 090°43'  
2014-Jul-22 13:29N 30°01' W 090°50'2 2.5
2014-Jul-22 12:33N 29°59' W 090°48'3 2.6
2014-Jul-22 11:33N 30°01' W 090°46'3 1.3
2014-Jul-22 09:25N 30°01' W 090°43'  
2014-Jul-19 08:16N 30°01' W 090°46'1 0.4
2014-Jul-19 06:33N 30°01' W 090°46'0 0.0
2014-Jul-19 05:31N 30°01' W 090°46'0 0.0
2014-Jul-19 04:16N 30°01' W 090°46'0 0.0
2014-Jul-19 03:33N 30°01' W 090°46'  

Dump ship's entire track history